createdAt,value
2019-01-24T00:00:24.927Z,16.33
2019-01-24T00:02:29.575Z,15.90
2019-01-24T00:04:34.441Z,14.60
2019-01-24T00:06:43.397Z,16.60
2019-01-24T00:08:48.093Z,16.37
2019-01-24T00:10:52.791Z,16.20
2019-01-24T00:12:57.217Z,14.20
2019-01-24T00:15:02.094Z,16.93
2019-01-24T00:17:06.818Z,16.17
2019-01-24T00:19:11.561Z,16.13
2019-01-24T00:21:17.241Z,15.40
2019-01-24T00:23:23.656Z,15.17
2019-01-24T00:25:28.975Z,17.73
2019-01-24T00:27:35.343Z,16.87
2019-01-24T00:29:41.003Z,14.53
2019-01-24T00:31:45.511Z,15.20
2019-01-24T00:33:50.286Z,13.40
2019-01-24T00:35:55.694Z,15.97
2019-01-24T00:38:03.218Z,14.90
2019-01-24T00:40:09.090Z,14.57
2019-01-24T00:42:13.612Z,15.60
2019-01-24T00:44:18.394Z,15.97
2019-01-24T00:46:22.802Z,14.13
2019-01-24T00:48:27.162Z,14.63
2019-01-24T00:50:31.548Z,15.47
2019-01-24T00:52:36.010Z,15.73
2019-01-24T00:54:40.750Z,16.57
2019-01-24T00:56:45.224Z,15.20
2019-01-24T00:58:49.712Z,18.93
2019-01-24T01:00:54.200Z,17.20
2019-01-24T01:02:58.666Z,16.13
2019-01-24T01:05:06.731Z,17.90
2019-01-24T01:07:11.359Z,17.23
2019-01-24T01:09:17.531Z,18.43
2019-01-24T01:11:22.081Z,15.67
2019-01-24T01:13:26.488Z,15.90
2019-01-24T01:15:33.951Z,15.03
2019-01-24T01:17:38.411Z,13.20
2019-01-24T01:19:42.812Z,15.67
2019-01-24T01:21:47.298Z,17.40
2019-01-24T01:23:51.712Z,15.33
2019-01-24T01:25:59.525Z,16.30
2019-01-24T01:28:04.020Z,14.90
2019-01-24T01:30:14.266Z,15.50
2019-01-24T01:32:18.873Z,14.17
2019-01-24T01:34:24.644Z,14.90
2019-01-24T01:36:29.833Z,16.20
2019-01-24T01:38:34.545Z,16.83
2019-01-24T01:40:45.019Z,16.23
2019-01-24T01:42:49.885Z,14.77
2019-01-24T01:44:55.978Z,17.83
2019-01-24T01:47:03.151Z,16.10
2019-01-24T01:49:07.547Z,16.30
2019-01-24T01:51:13.091Z,16.20
2019-01-24T01:53:17.474Z,16.30
2019-01-24T01:55:24.326Z,16.50
2019-01-24T01:57:31.833Z,16.90
2019-01-24T01:59:39.143Z,13.87
2019-01-24T02:01:44.069Z,14.93
2019-01-24T02:03:49.430Z,14.37
2019-01-24T02:05:53.799Z,14.50
2019-01-24T02:07:58.626Z,18.47
2019-01-24T02:10:03.431Z,15.60
2019-01-24T02:12:07.843Z,16.90
2019-01-24T02:14:13.826Z,17.97
2019-01-24T02:16:18.528Z,14.60
2019-01-24T02:18:23.015Z,12.87
2019-01-24T02:20:29.697Z,13.80
2019-01-24T02:22:56.094Z,14.90
2019-01-24T02:25:00.485Z,11.67
2019-01-24T02:27:05.930Z,14.33
2019-01-24T02:29:10.307Z,16.57
2019-01-24T02:31:14.734Z,15.57
2019-01-24T02:33:19.474Z,14.77
2019-01-24T02:35:25.948Z,12.63
2019-01-24T02:37:30.694Z,14.57
2019-01-24T02:39:35.403Z,15.60
2019-01-24T02:41:39.846Z,15.87
2019-01-24T02:43:44.176Z,10.10
2019-01-24T02:45:49.756Z,15.17
2019-01-24T02:47:54.916Z,13.50
2019-01-24T02:50:00.347Z,11.53
2019-01-24T02:52:04.734Z,15.73
2019-01-24T02:54:14.325Z,11.40
2019-01-24T02:56:20.260Z,12.47
2019-01-24T02:58:24.738Z,12.87
2019-01-24T03:00:29.543Z,16.00
2019-01-24T03:02:34.229Z,13.37
2019-01-24T03:04:41.120Z,15.27
2019-01-24T03:06:45.464Z,13.20
2019-01-24T03:08:49.950Z,14.07
2019-01-24T03:10:54.510Z,16.03
2019-01-24T03:12:58.999Z,15.60
2019-01-24T03:15:04.045Z,13.17
2019-01-24T03:17:09.244Z,17.77
2019-01-24T03:19:13.675Z,17.30
2019-01-24T03:21:18.186Z,17.57
2019-01-24T03:23:23.997Z,17.13
2019-01-24T03:25:28.582Z,19.23
2019-01-24T03:27:33.865Z,17.93
2019-01-24T03:29:38.699Z,18.53
2019-01-24T03:31:43.114Z,16.73
2019-01-24T03:33:47.586Z,15.67
2019-01-24T03:35:52.097Z,14.93
2019-01-24T03:37:56.906Z,17.17
2019-01-24T03:40:01.361Z,18.00
2019-01-24T03:42:06.257Z,18.13
2019-01-24T03:44:13.570Z,17.20
2019-01-24T03:46:17.963Z,17.90
2019-01-24T03:48:22.334Z,17.10
2019-01-24T03:50:26.910Z,18.17
2019-01-24T03:52:32.076Z,16.40
2019-01-24T03:54:37.738Z,21.47
2019-01-24T03:56:42.918Z,17.97
2019-01-24T03:58:50.485Z,19.40
2019-01-24T04:00:55.318Z,18.97
2019-01-24T04:03:00.100Z,17.27
2019-01-24T04:05:11.812Z,20.27
2019-01-24T04:07:13.311Z,17.50
2019-01-24T04:09:18.389Z,17.27
2019-01-24T04:11:24.276Z,16.73
2019-01-24T04:13:29.068Z,19.40
2019-01-24T04:15:33.455Z,17.20
2019-01-24T04:17:37.827Z,17.60
2019-01-24T04:19:42.328Z,21.67
2019-01-24T04:21:46.811Z,19.40
2019-01-24T04:23:51.191Z,19.17
2019-01-24T04:25:55.665Z,20.00
2019-01-24T04:28:00.891Z,19.37
2019-01-24T04:30:06.351Z,18.30
2019-01-24T04:32:11.329Z,17.93
2019-01-24T04:34:16.181Z,18.87
2019-01-24T04:36:20.728Z,15.97
2019-01-24T04:38:25.156Z,17.80
2019-01-24T04:40:33.436Z,18.10
2019-01-24T04:42:37.844Z,16.50
2019-01-24T04:44:42.273Z,17.53
2019-01-24T04:46:46.642Z,19.80
2019-01-24T04:48:51.031Z,17.63
2019-01-24T04:50:55.875Z,11.13
2019-01-24T04:53:00.327Z,14.47
2019-01-24T04:55:05.144Z,18.10
2019-01-24T04:57:09.574Z,15.30
2019-01-24T04:59:14.334Z,16.67
2019-01-24T05:01:18.820Z,18.47
2019-01-24T05:03:23.303Z,16.47
2019-01-24T05:05:28.209Z,17.97
2019-01-24T05:07:32.717Z,15.80
2019-01-24T05:09:37.186Z,15.10
2019-01-24T05:11:41.554Z,15.70
2019-01-24T05:13:48.932Z,19.50
2019-01-24T05:15:53.388Z,16.10
2019-01-24T05:18:02.295Z,17.53
2019-01-24T05:20:09.213Z,17.40
2019-01-24T05:22:13.717Z,11.00
2019-01-24T05:24:18.438Z,16.10
2019-01-24T05:26:23.187Z,18.73
2019-01-24T05:28:31.316Z,18.83
2019-01-24T05:30:38.090Z,16.87
2019-01-24T05:32:44.837Z,15.90
2019-01-24T05:34:51.968Z,15.90
2019-01-24T05:36:57.889Z,15.83
2019-01-24T05:39:04.530Z,18.30
2019-01-24T05:41:09.277Z,16.97
2019-01-24T05:43:13.668Z,18.27
2019-01-24T05:45:18.374Z,18.00
2019-01-24T05:47:22.882Z,18.53
2019-01-24T05:49:30.219Z,19.00
2019-01-24T05:51:34.765Z,19.37
2019-01-24T05:53:40.270Z,17.60
2019-01-24T05:55:47.469Z,15.70
2019-01-24T05:57:51.901Z,13.93
2019-01-24T05:59:56.697Z,17.40
2019-01-24T06:02:01.199Z,17.40
2019-01-24T06:04:06.941Z,14.47
2019-01-24T06:06:12.951Z,18.20
2019-01-24T06:08:17.659Z,16.10
2019-01-24T06:10:22.065Z,17.50
2019-01-24T06:12:27.969Z,18.30
2019-01-24T06:14:32.734Z,18.30
2019-01-24T06:16:39.972Z,19.20
2019-01-24T06:18:46.415Z,18.80
2019-01-24T06:20:53.813Z,16.80
2019-01-24T06:22:58.290Z,18.67
2019-01-24T06:25:02.852Z,15.17
2019-01-24T06:27:08.558Z,17.20
2019-01-24T06:29:13.834Z,18.30
2019-01-24T06:31:18.411Z,17.37
2019-01-24T06:33:23.130Z,20.80
2019-01-24T06:35:27.493Z,16.50
2019-01-24T06:37:32.737Z,16.03
2019-01-24T06:39:38.805Z,17.00
2019-01-24T06:41:44.691Z,15.30
2019-01-24T06:43:49.170Z,16.30
2019-01-24T06:45:57.064Z,17.47
2019-01-24T06:48:01.771Z,16.80
2019-01-24T06:50:09.632Z,16.70
2019-01-24T06:52:15.605Z,14.57
2019-01-24T06:54:20.173Z,18.63
2019-01-24T06:56:25.089Z,19.03
2019-01-24T06:58:29.663Z,17.60
2019-01-24T07:00:34.549Z,20.03
2019-01-24T07:02:39.475Z,17.40
2019-01-24T07:04:46.333Z,16.03
2019-01-24T07:06:52.085Z,15.67
2019-01-24T07:08:56.977Z,17.30
2019-01-24T07:11:02.060Z,17.20
2019-01-24T07:13:07.050Z,17.83
2019-01-24T07:15:17.436Z,15.60
2019-01-24T07:17:22.683Z,17.17
2019-01-24T07:19:34.601Z,16.93
2019-01-24T07:21:44.216Z,18.27
2019-01-24T07:23:51.824Z,13.77
2019-01-24T07:25:58.403Z,17.37
2019-01-24T07:28:53.740Z,15.60
2019-01-24T07:30:44.608Z,13.70
2019-01-24T07:33:11.659Z,16.23
2019-01-24T07:35:17.262Z,17.27
2019-01-24T07:37:21.779Z,16.77
2019-01-24T07:39:26.609Z,16.20
2019-01-24T07:41:52.393Z,14.70
2019-01-24T07:43:58.406Z,16.07
2019-01-24T07:46:03.099Z,16.37
2019-01-24T07:48:08.691Z,15.97
2019-01-24T07:50:13.597Z,17.30
2019-01-24T07:52:25.431Z,20.13
2019-01-24T07:54:29.374Z,16.00
2019-01-24T07:56:34.203Z,17.87
2019-01-24T07:58:39.234Z,16.10
2019-01-24T08:00:43.868Z,18.13
2019-01-24T08:02:49.489Z,16.60
2019-01-24T08:04:55.614Z,16.20
2019-01-24T08:07:04.090Z,18.10
2019-01-24T08:09:09.555Z,18.80
2019-01-24T08:11:20.941Z,19.10
2019-01-24T08:13:28.157Z,19.03
2019-01-24T08:15:34.836Z,16.20
2019-01-24T08:17:39.657Z,20.73
2019-01-24T08:19:44.355Z,17.50
2019-01-24T08:21:50.193Z,19.40
2019-01-24T08:23:57.393Z,20.67
2019-01-24T08:26:01.944Z,20.30
2019-01-24T08:28:06.549Z,19.67
2019-01-24T08:30:14.929Z,17.70
2019-01-24T08:32:23.153Z,16.67
2019-01-24T08:34:27.667Z,23.93
2019-01-24T08:36:32.160Z,24.10
2019-01-24T08:38:39.621Z,20.07
2019-01-24T08:40:44.590Z,21.07
2019-01-24T08:42:49.491Z,19.07
2019-01-24T08:44:54.351Z,19.70
2019-01-24T08:46:58.816Z,20.60
2019-01-24T08:49:04.538Z,19.60
2019-01-24T08:51:09.384Z,20.83
2019-01-24T08:53:14.307Z,22.80
2019-01-24T08:55:27.565Z,24.30
2019-01-24T08:57:32.802Z,21.53
2019-01-24T08:59:37.730Z,23.57
2019-01-24T09:01:46.783Z,25.23
2019-01-24T09:03:53.083Z,28.50
2019-01-24T09:05:59.374Z,22.57
2019-01-24T09:08:05.121Z,20.23
2019-01-24T09:10:27.261Z,24.87
2019-01-24T09:12:38.011Z,21.47
2019-01-24T09:14:45.153Z,18.20
2019-01-24T09:16:59.533Z,20.57
2019-01-24T09:19:07.700Z,18.70
2019-01-24T09:21:12.151Z,20.17
2019-01-24T09:23:20.429Z,17.50
2019-01-24T09:25:29.343Z,20.27
2019-01-24T09:27:39.045Z,19.63
2019-01-24T09:29:44.111Z,19.87
2019-01-24T09:31:55.730Z,15.87
2019-01-24T09:34:01.178Z,18.60
2019-01-24T09:36:05.993Z,18.87
2019-01-24T09:38:10.926Z,18.30
2019-01-24T09:40:16.271Z,20.90
2019-01-24T09:42:21.766Z,21.20
2019-01-24T09:44:30.542Z,19.27
2019-01-24T09:46:38.908Z,21.47
2019-01-24T09:49:03.673Z,22.77
2019-01-24T09:51:18.885Z,23.73
2019-01-24T09:53:28.888Z,22.37
2019-01-24T09:55:51.066Z,23.57
2019-01-24T09:58:16.891Z,21.27
2019-01-24T10:00:39.728Z,20.57
2019-01-24T10:02:47.589Z,21.77
2019-01-24T10:04:54.536Z,24.27
2019-01-24T10:07:03.699Z,21.70
2019-01-24T10:09:13.864Z,21.47
2019-01-24T10:11:23.527Z,20.67
2019-01-24T10:13:33.708Z,22.60
2019-01-24T10:15:40.975Z,21.90
2019-01-24T10:17:45.550Z,20.87
2019-01-24T10:19:50.221Z,20.20
2019-01-24T10:21:54.971Z,21.30
2019-01-24T10:23:59.519Z,20.93
2019-01-24T10:26:04.199Z,21.80
2019-01-24T10:28:09.445Z,20.83
2019-01-24T10:30:16.080Z,24.57
2019-01-24T10:32:21.040Z,22.30
2019-01-24T10:34:27.161Z,23.07
2019-01-24T10:36:32.084Z,19.93
2019-01-24T10:38:36.563Z,20.87
2019-01-24T10:40:41.517Z,24.37
2019-01-24T10:42:46.236Z,24.13
2019-01-24T10:44:51.082Z,22.57
2019-01-24T10:46:56.041Z,20.37
2019-01-24T10:49:00.711Z,24.43
2019-01-24T10:51:05.973Z,25.23
2019-01-24T10:53:10.964Z,21.00
2019-01-24T10:55:17.856Z,27.00
2019-01-24T10:57:22.592Z,23.90
2019-01-24T10:59:27.393Z,24.40
2019-01-24T11:01:32.391Z,24.80
2019-01-24T11:03:36.889Z,26.87
2019-01-24T11:05:41.659Z,24.63
2019-01-24T11:07:46.383Z,25.93
2019-01-24T11:09:50.872Z,26.70
2019-01-24T11:11:56.066Z,29.43
2019-01-24T11:14:00.928Z,25.60
2019-01-24T11:16:09.833Z,24.50
2019-01-24T11:18:19.018Z,25.30
2019-01-24T11:20:36.178Z,23.83
2019-01-24T11:22:45.643Z,23.10
2019-01-24T11:24:56.830Z,27.00
2019-01-24T11:27:06.447Z,26.60
2019-01-24T11:29:13.771Z,28.80
2019-01-24T11:31:22.795Z,27.47
2019-01-24T11:33:28.372Z,21.30
2019-01-24T11:35:48.847Z,25.07
2019-01-24T11:37:56.370Z,27.27
2019-01-24T11:40:02.237Z,22.00
2019-01-24T11:42:14.522Z,28.47
2019-01-24T11:44:32.399Z,22.53
2019-01-24T11:47:02.794Z,20.40
2019-01-24T11:49:12.480Z,23.43
2019-01-24T11:51:21.899Z,26.17
2019-01-24T11:53:33.629Z,14.53
2019-01-24T11:55:40.374Z,22.50
2019-01-24T11:57:56.629Z,21.73
2019-01-24T12:00:05.428Z,10.17
2019-01-24T12:02:20.405Z,27.70
2019-01-24T12:04:25.289Z,24.13
2019-01-24T12:06:30.169Z,25.90
2019-01-24T12:08:34.626Z,26.23
2019-01-24T12:10:40.333Z,25.27
2019-01-24T12:12:45.167Z,23.43
2019-01-24T12:14:52.525Z,23.53
2019-01-24T12:17:00.770Z,20.17
2019-01-24T12:19:05.780Z,23.90
2019-01-24T12:21:10.757Z,29.83
2019-01-24T12:23:16.305Z,21.20
2019-01-24T12:25:22.931Z,21.47
2019-01-24T12:27:28.522Z,26.00
2019-01-24T12:29:33.824Z,21.20
2019-01-24T12:31:39.089Z,15.57
2019-01-24T12:33:46.319Z,25.20
2019-01-24T12:35:50.981Z,21.50
2019-01-24T12:37:56.116Z,20.90
2019-01-24T12:40:00.650Z,20.70
2019-01-24T12:42:10.575Z,20.60
2019-01-24T12:44:17.785Z,28.97
2019-01-24T12:46:22.575Z,26.77
2019-01-24T12:48:28.572Z,26.43
2019-01-24T12:50:33.611Z,25.47
2019-01-24T12:52:38.514Z,17.93
2019-01-24T12:54:44.712Z,24.90
2019-01-24T12:56:51.746Z,22.00
2019-01-24T12:58:56.205Z,19.50
2019-01-24T13:01:01.058Z,24.70
2019-01-24T13:03:05.804Z,21.30
2019-01-24T13:05:10.745Z,22.10
2019-01-24T13:07:18.503Z,24.90
2019-01-24T13:09:22.760Z,22.47
2019-01-24T13:11:27.763Z,23.63
2019-01-24T13:13:32.319Z,26.40
2019-01-24T13:15:37.069Z,25.23
2019-01-24T13:17:41.554Z,22.90
2019-01-24T13:19:46.647Z,22.10
2019-01-24T13:21:51.235Z,23.73
2019-01-24T13:23:55.885Z,19.60
2019-01-24T13:26:02.017Z,19.90
2019-01-24T13:28:07.196Z,23.37
2019-01-24T13:30:20.774Z,25.60
2019-01-24T13:32:25.547Z,22.57
2019-01-24T13:34:32.273Z,23.63
2019-01-24T13:36:38.963Z,23.73
2019-01-24T13:38:44.328Z,21.07
2019-01-24T13:40:50.585Z,21.47
2019-01-24T13:42:55.202Z,21.60
2019-01-24T13:44:59.700Z,19.20
2019-01-24T13:47:04.741Z,21.60
2019-01-24T13:49:09.233Z,22.27
2019-01-24T13:51:16.952Z,24.67
2019-01-24T13:53:21.953Z,22.27
2019-01-24T13:55:26.726Z,22.20
2019-01-24T13:57:31.708Z,26.23
2019-01-24T13:59:36.874Z,23.90
2019-01-24T14:01:42.112Z,20.57
2019-01-24T14:04:16.527Z,22.20
2019-01-24T14:06:23.135Z,22.90
2019-01-24T14:08:30.463Z,21.37
2019-01-24T14:10:36.524Z,25.57
2019-01-24T14:12:41.485Z,19.90
2019-01-24T14:14:46.242Z,21.63
2019-01-24T14:16:50.849Z,19.77
2019-01-24T14:18:58.273Z,28.33
2019-01-24T14:21:03.483Z,26.50
2019-01-24T14:23:10.407Z,25.37
2019-01-24T14:25:18.359Z,23.90
2019-01-24T14:27:22.800Z,23.20
2019-01-24T14:29:29.799Z,26.17
2019-01-24T14:31:35.544Z,22.90
2019-01-24T14:33:41.051Z,18.30
2019-01-24T14:35:46.805Z,22.00
2019-01-24T14:37:52.022Z,16.97
2019-01-24T14:39:57.582Z,22.60
2019-01-24T14:42:02.233Z,22.70
2019-01-24T14:44:11.324Z,21.00
2019-01-24T14:46:16.288Z,22.30
2019-01-24T14:48:21.349Z,20.93
2019-01-24T14:50:29.360Z,25.23
2019-01-24T14:52:35.549Z,23.63
2019-01-24T14:54:41.376Z,24.40
2019-01-24T14:56:48.298Z,18.17
2019-01-24T14:58:56.143Z,24.60
2019-01-24T15:01:06.058Z,17.93
2019-01-24T15:03:10.769Z,24.03
2019-01-24T15:05:15.469Z,24.60
2019-01-24T15:07:21.948Z,23.50
2019-01-24T15:09:26.971Z,23.10
2019-01-24T15:11:33.644Z,17.33
2019-01-24T15:13:38.343Z,20.10
2019-01-24T15:15:43.526Z,23.33
2019-01-24T15:17:49.368Z,27.60
2019-01-24T15:19:54.307Z,17.17
2019-01-24T15:21:59.248Z,21.50
2019-01-24T15:24:04.700Z,17.77
2019-01-24T15:26:12.016Z,18.67
2019-01-24T15:28:16.983Z,21.77
2019-01-24T15:30:23.613Z,18.13
2019-01-24T15:32:28.213Z,24.57
2019-01-24T15:34:39.244Z,21.40
2019-01-24T15:36:43.641Z,24.63
2019-01-24T15:38:50.229Z,17.93
2019-01-24T15:40:59.484Z,22.60
2019-01-24T15:43:04.995Z,20.00
2019-01-24T15:45:11.000Z,23.87
2019-01-24T15:47:15.818Z,22.00
2019-01-24T15:49:20.439Z,24.47
2019-01-24T15:51:27.270Z,21.27
2019-01-24T15:53:35.605Z,18.60
2019-01-24T15:55:42.537Z,22.97
2019-01-24T15:57:47.530Z,21.93
2019-01-24T15:59:52.263Z,20.90
2019-01-24T16:01:59.304Z,17.30
2019-01-24T16:04:03.782Z,18.23
2019-01-24T16:06:09.728Z,21.97
2019-01-24T16:08:14.656Z,20.07
2019-01-24T16:10:20.015Z,20.23
2019-01-24T16:12:24.628Z,20.27
2019-01-24T16:14:32.203Z,21.10
2019-01-24T16:16:39.179Z,16.13
2019-01-24T16:18:46.919Z,22.00
2019-01-24T16:20:54.935Z,15.50
2019-01-24T16:22:59.710Z,23.17
2019-01-24T16:25:04.955Z,20.03
2019-01-24T16:27:09.422Z,18.30
2019-01-24T16:29:15.912Z,23.07
2019-01-24T16:31:21.091Z,24.53
2019-01-24T16:33:30.205Z,17.80
2019-01-24T16:35:36.112Z,19.77
2019-01-24T16:37:48.694Z,19.50
2019-01-24T16:39:58.767Z,21.60
2019-01-24T16:42:06.058Z,18.63
2019-01-24T16:44:11.624Z,19.13
2019-01-24T16:46:18.310Z,20.90
2019-01-24T16:48:25.560Z,18.40
2019-01-24T16:50:31.067Z,22.60
2019-01-24T16:52:36.133Z,21.23
2019-01-24T16:54:44.355Z,18.50
2019-01-24T16:56:50.212Z,17.53
2019-01-24T16:58:56.118Z,17.50
2019-01-24T17:01:09.014Z,16.93
2019-01-24T17:03:14.953Z,18.70
2019-01-24T17:05:19.911Z,21.60
2019-01-24T17:07:24.460Z,17.97
2019-01-24T17:09:29.417Z,19.70
2019-01-24T17:11:36.022Z,21.90
2019-01-24T17:13:40.668Z,19.83
2019-01-24T17:15:45.214Z,19.80
2019-01-24T17:18:00.440Z,21.87
2019-01-24T17:20:10.052Z,21.57
2019-01-24T17:22:14.881Z,18.90
2019-01-24T17:24:19.863Z,20.20
2019-01-24T17:26:28.280Z,20.60
2019-01-24T17:28:33.389Z,18.67
2019-01-24T17:30:40.760Z,19.80
2019-01-24T17:32:46.949Z,20.80
2019-01-24T17:34:53.610Z,21.13
2019-01-24T17:37:04.628Z,20.60
2019-01-24T17:39:14.622Z,19.27
2019-01-24T17:41:20.710Z,24.20
2019-01-24T17:43:30.783Z,21.77
2019-01-24T17:45:37.247Z,18.87
2019-01-24T17:47:45.289Z,19.87
2019-01-24T17:49:51.542Z,22.07
2019-01-24T17:51:59.454Z,20.20
2019-01-24T17:54:04.043Z,22.43
2019-01-24T17:56:09.079Z,19.93
2019-01-24T17:58:14.412Z,17.80
2019-01-24T18:00:22.462Z,19.33
2019-01-24T18:02:27.155Z,22.73
2019-01-24T18:04:32.052Z,20.30
2019-01-24T18:06:37.367Z,20.30
2019-01-24T18:08:42.092Z,20.93
2019-01-24T18:10:46.660Z,21.37
2019-01-24T18:12:52.015Z,22.60
2019-01-24T18:14:56.877Z,21.40
2019-01-24T18:17:01.612Z,20.30
2019-01-24T18:19:06.689Z,19.77
2019-01-24T18:21:18.150Z,22.37
2019-01-24T18:23:23.229Z,21.30
2019-01-24T18:25:28.278Z,29.10
2019-01-24T18:27:33.592Z,22.50
2019-01-24T18:29:39.111Z,19.87
2019-01-24T18:31:54.576Z,18.97
2019-01-24T18:33:59.556Z,19.70
2019-01-24T18:36:06.431Z,21.60
2019-01-24T18:38:11.668Z,22.27
2019-01-24T18:40:20.090Z,23.37
2019-01-24T18:42:25.819Z,20.37
2019-01-24T18:44:33.050Z,21.30
2019-01-24T18:46:39.037Z,19.77
2019-01-24T18:48:43.797Z,21.63
2019-01-24T18:50:53.884Z,22.90
2019-01-24T18:53:07.210Z,21.57
2019-01-24T18:55:12.498Z,21.90
2019-01-24T18:57:17.479Z,20.10
2019-01-24T18:59:22.254Z,20.13
2019-01-24T19:01:30.375Z,21.90
2019-01-24T19:03:35.454Z,18.43
2019-01-24T19:05:42.176Z,18.70
2019-01-24T19:07:46.985Z,19.77
2019-01-24T19:09:55.059Z,20.70
2019-01-24T19:12:03.897Z,19.27
2019-01-24T19:14:09.862Z,18.87
2019-01-24T19:16:15.267Z,21.93
2019-01-24T19:18:21.204Z,20.07
2019-01-24T19:20:28.198Z,21.40
2019-01-24T19:22:35.209Z,20.57
2019-01-24T19:24:43.832Z,18.60
2019-01-24T19:26:48.643Z,21.73
2019-01-24T19:28:55.296Z,19.43
2019-01-24T19:31:00.119Z,22.27
2019-01-24T19:33:06.750Z,21.60
2019-01-24T19:35:13.055Z,21.50
2019-01-24T19:37:20.318Z,23.20
2019-01-24T19:39:25.291Z,21.60
2019-01-24T19:41:30.275Z,21.57
2019-01-24T19:43:35.150Z,19.67
2019-01-24T19:45:44.631Z,23.17
2019-01-24T19:47:49.550Z,23.20
2019-01-24T19:49:54.425Z,21.23
2019-01-24T19:52:07.582Z,22.67
2019-01-24T19:54:16.639Z,20.43
2019-01-24T19:56:24.387Z,22.50
2019-01-24T19:58:28.974Z,21.40
2019-01-24T20:00:33.918Z,20.37
2019-01-24T20:02:39.262Z,22.03
2019-01-24T20:04:44.084Z,20.77
2019-01-24T20:06:50.596Z,21.90
2019-01-24T20:09:00.095Z,22.30
2019-01-24T20:11:04.670Z,20.67
2019-01-24T20:13:11.508Z,23.30
2019-01-24T20:15:20.482Z,21.70
2019-01-24T20:17:26.472Z,20.93
2019-01-24T20:19:33.971Z,22.27
2019-01-24T20:21:39.548Z,21.67
2019-01-24T20:23:44.584Z,23.30
2019-01-24T20:25:49.419Z,22.27
2019-01-24T20:27:55.100Z,23.00
2019-01-24T20:30:03.480Z,24.40
2019-01-24T20:32:14.637Z,22.37
2019-01-24T20:34:26.087Z,25.13
2019-01-24T20:36:33.886Z,25.70
2019-01-24T20:38:40.239Z,23.17
2019-01-24T20:40:52.316Z,24.30
2019-01-24T20:43:00.574Z,25.07
2019-01-24T20:45:06.638Z,24.30
2019-01-24T20:47:12.774Z,22.07
2019-01-24T20:49:21.609Z,23.30
2019-01-24T20:51:26.773Z,23.90
2019-01-24T20:53:32.944Z,27.10
2019-01-24T20:55:38.000Z,26.43
2019-01-24T20:57:43.014Z,24.67
2019-01-24T20:59:48.543Z,24.63
2019-01-24T21:01:54.637Z,24.57
2019-01-24T21:04:03.116Z,26.17
2019-01-24T21:06:10.001Z,23.57
2019-01-24T21:08:16.125Z,26.40
2019-01-24T21:10:22.944Z,24.80
2019-01-24T21:12:29.019Z,24.07
2019-01-24T21:14:35.291Z,23.30
2019-01-24T21:16:48.902Z,23.97
2019-01-24T21:18:54.493Z,25.10
2019-01-24T21:21:04.597Z,24.40
2019-01-24T21:23:09.269Z,22.73
2019-01-24T21:25:15.136Z,21.40
2019-01-24T21:27:21.512Z,24.60
2019-01-24T21:29:31.251Z,24.60
2019-01-24T21:31:38.003Z,24.67
2019-01-24T21:33:46.094Z,25.00
2019-01-24T21:35:51.788Z,23.57
2019-01-24T21:38:00.730Z,25.23
2019-01-24T21:40:06.753Z,24.17
2019-01-24T21:42:13.424Z,24.77
2019-01-24T21:44:20.900Z,23.10
2019-01-24T21:46:27.729Z,24.23
2019-01-24T21:48:34.497Z,22.70
2019-01-24T21:50:42.796Z,23.50
2019-01-24T21:52:47.876Z,23.40
2019-01-24T21:54:54.607Z,25.97
2019-01-24T21:57:01.399Z,23.03
2019-01-24T21:59:07.066Z,23.03
2019-01-24T22:01:13.040Z,24.73
2019-01-24T22:05:19.114Z,26.30
2019-01-24T22:07:47.522Z,24.27
2019-01-24T22:10:06.361Z,22.80
2019-01-24T22:12:24.051Z,25.73
2019-01-24T22:14:40.757Z,24.07
2019-01-24T22:16:45.802Z,24.07
2019-01-24T22:18:54.026Z,22.73
2019-01-24T22:23:36.374Z,25.10
2019-01-24T22:23:38.773Z,26.13
2019-01-24T22:25:43.815Z,27.67
2019-01-24T22:27:49.014Z,25.30
2019-01-24T22:29:53.606Z,27.73
2019-01-24T22:32:17.428Z,25.90
2019-01-24T22:34:22.013Z,24.60
2019-01-24T22:41:38.835Z,23.53
2019-01-24T22:43:56.908Z,23.43
2019-01-24T22:46:14.373Z,24.70
2019-01-24T22:48:30.972Z,27.43
2019-01-24T22:50:49.182Z,25.17
2019-01-24T22:52:54.793Z,22.70
2019-01-24T22:55:19.165Z,27.93
2019-01-24T22:57:24.354Z,24.40
2019-01-24T22:59:31.534Z,24.03
2019-01-24T23:02:01.044Z,25.67
2019-01-24T23:04:17.511Z,26.23
2019-01-24T23:06:34.004Z,27.00
2019-01-24T23:08:50.319Z,27.40
2019-01-24T23:11:07.810Z,24.27
2019-01-24T23:13:15.064Z,28.10
2019-01-24T23:15:39.150Z,27.07
2019-01-24T23:18:02.722Z,26.80
2019-01-24T23:20:19.147Z,26.60
2019-01-24T23:22:37.977Z,26.80
2019-01-24T23:24:54.636Z,25.10
2019-01-24T23:27:10.714Z,27.63
2019-01-24T23:29:27.485Z,26.30
2019-01-24T23:31:44.302Z,27.70
2019-01-24T23:34:00.402Z,25.83
2019-01-24T23:36:17.212Z,27.30
2019-01-24T23:38:33.512Z,25.77
2019-01-24T23:40:51.258Z,27.57
2019-01-24T23:42:58.180Z,26.10
2019-01-24T23:45:04.291Z,26.63
2019-01-24T23:47:09.945Z,24.53
2019-01-24T23:49:35.067Z,27.10
2019-01-24T23:51:51.950Z,28.30
2019-01-24T23:53:57.894Z,27.80
2019-01-24T23:58:51.112Z,23.90
